sensor_id;sensor_type;location;lat;lon;timestamp;P1;durP1;ratioP1;P2;durP2;ratioP2
2564;SDS011;1292;48.020;7.822;2022-07-29T05:46:25;5.50;;;5.00;;
2564;SDS011;1292;48.020;7.822;2022-07-29T05:48:52;5.57;;;4.90;;
2564;SDS011;1292;48.020;7.822;2022-07-29T05:51:19;6.20;;;5.30;;
2564;SDS011;1292;48.020;7.822;2022-07-29T05:53:46;5.30;;;4.80;;
2564;SDS011;1292;48.020;7.822;2022-07-29T05:56:13;6.00;;;4.00;;
2564;SDS011;1292;48.020;7.822;2022-07-29T05:58:40;6.40;;;4.43;;
2564;SDS011;1292;48.020;7.822;2022-07-29T06:01:07;5.20;;;4.70;;
2564;SDS011;1292;48.020;7.822;2022-07-29T06:03:35;6.47;;;4.73;;
2564;SDS011;1292;48.020;7.822;2022-07-29T06:06:03;4.90;;;4.50;;
2564;SDS011;1292;48.020;7.822;2022-07-29T06:08:31;4.77;;;4.40;;
2564;SDS011;1292;48.020;7.822;2022-07-29T06:10:58;4.40;;;4.00;;
2564;SDS011;1292;48.020;7.822;2022-07-29T06:13:25;3.83;;;3.50;;
2564;SDS011;1292;48.020;7.822;2022-07-29T06:15:52;4.83;;;4.13;;
2564;SDS011;1292;48.020;7.822;2022-07-29T06:18:19;5.27;;;4.77;;
2564;SDS011;1292;48.020;7.822;2022-07-29T06:20:50;5.90;;;4.43;;
2564;SDS011;1292;48.020;7.822;2022-07-29T06:23:17;5.10;;;4.37;;
2564;SDS011;1292;48.020;7.822;2022-07-29T06:25:44;5.37;;;4.43;;
2564;SDS011;1292;48.020;7.822;2022-07-29T06:28:10;3.80;;;3.50;;
2564;SDS011;1292;48.020;7.822;2022-07-29T06:30:37;4.47;;;4.17;;
2564;SDS011;1292;48.020;7.822;2022-07-29T06:33:04;4.60;;;4.20;;
2564;SDS011;1292;48.020;7.822;2022-07-29T06:35:32;4.27;;;3.87;;
2564;SDS011;1292;48.020;7.822;2022-07-29T06:38:01;3.37;;;3.03;;
2564;SDS011;1292;48.020;7.822;2022-07-29T06:40:28;6.73;;;4.00;;
2564;SDS011;1292;48.020;7.822;2022-07-29T06:43:12;4.60;;;3.77;;
2564;SDS011;1292;48.020;7.822;2022-07-29T06:45:39;5.33;;;4.87;;
2564;SDS011;1292;48.020;7.822;2022-07-29T06:48:07;3.97;;;3.67;;
2564;SDS011;1292;48.020;7.822;2022-07-29T06:50:34;4.27;;;3.90;;
2564;SDS011;1292;48.020;7.822;2022-07-29T06:53:02;7.10;;;3.50;;
2564;SDS011;1292;48.020;7.822;2022-07-29T06:55:30;3.90;;;3.60;;
2564;SDS011;1292;48.020;7.822;2022-07-29T06:57:57;4.30;;;3.90;;
2564;SDS011;1292;48.020;7.822;2022-07-29T07:00:24;3.63;;;3.33;;
2564;SDS011;1292;48.020;7.822;2022-07-29T07:02:51;5.00;;;3.90;;
2564;SDS011;1292;48.020;7.822;2022-07-29T07:05:17;4.87;;;4.33;;
2564;SDS011;1292;48.020;7.822;2022-07-29T07:07:44;3.47;;;3.27;;
2564;SDS011;1292;48.020;7.822;2022-07-29T07:10:12;5.73;;;3.80;;
2564;SDS011;1292;48.020;7.822;2022-07-29T07:12:39;4.10;;;3.60;;
2564;SDS011;1292;48.020;7.822;2022-07-29T07:15:07;4.23;;;3.83;;
2564;SDS011;1292;48.020;7.822;2022-07-29T07:17:34;5.03;;;3.70;;
2564;SDS011;1292;48.020;7.822;2022-07-29T07:20:02;3.83;;;3.53;;
2564;SDS011;1292;48.020;7.822;2022-07-29T07:22:31;4.10;;;2.80;;
2564;SDS011;1292;48.020;7.822;2022-07-29T07:24:57;6.70;;;3.20;;
2564;SDS011;1292;48.020;7.822;2022-07-29T07:27:25;4.40;;;4.00;;
2564;SDS011;1292;48.020;7.822;2022-07-29T07:29:53;4.43;;;4.03;;
2564;SDS011;1292;48.020;7.822;2022-07-29T07:32:20;5.30;;;4.03;;
2564;SDS011;1292;48.020;7.822;2022-07-29T07:34:46;5.90;;;4.10;;
2564;SDS011;1292;48.020;7.822;2022-07-29T07:37:13;4.00;;;3.70;;
2564;SDS011;1292;48.020;7.822;2022-07-29T07:39:40;5.03;;;4.00;;
2564;SDS011;1292;48.020;7.822;2022-07-29T07:42:07;5.37;;;3.50;;
2564;SDS011;1292;48.020;7.822;2022-07-29T07:44:37;5.00;;;3.47;;
2564;SDS011;1292;48.020;7.822;2022-07-29T07:47:04;3.80;;;3.47;;
2564;SDS011;1292;48.020;7.822;2022-07-29T07:49:31;3.93;;;3.57;;
2564;SDS011;1292;48.020;7.822;2022-07-29T07:51:58;4.10;;;3.80;;
2564;SDS011;1292;48.020;7.822;2022-07-29T07:54:25;3.90;;;3.50;;
2564;SDS011;1292;48.020;7.822;2022-07-29T07:56:51;4.20;;;3.80;;
2564;SDS011;1292;48.020;7.822;2022-07-29T07:59:18;4.47;;;3.40;;
2564;SDS011;1292;48.020;7.822;2022-07-29T08:01:46;12.57;;;4.20;;
2564;SDS011;1292;48.020;7.822;2022-07-29T08:04:13;7.10;;;4.10;;
2564;SDS011;1292;48.020;7.822;2022-07-29T08:06:40;3.80;;;3.53;;
2564;SDS011;1292;48.020;7.822;2022-07-29T08:09:07;8.20;;;3.90;;
2564;SDS011;1292;48.020;7.822;2022-07-29T08:11:34;5.60;;;4.03;;
2564;SDS011;1292;48.020;7.822;2022-07-29T08:14:00;4.27;;;3.97;;
2564;SDS011;1292;48.020;7.822;2022-07-29T08:16:27;6.83;;;3.90;;
2564;SDS011;1292;48.020;7.822;2022-07-29T08:18:56;3.23;;;2.93;;
2564;SDS011;1292;48.020;7.822;2022-07-29T08:21:23;3.87;;;3.57;;
2564;SDS011;1292;48.020;7.822;2022-07-29T08:23:50;6.90;;;3.83;;
2564;SDS011;1292;48.020;7.822;2022-07-29T08:26:38;3.80;;;3.40;;
2564;SDS011;1292;48.020;7.822;2022-07-29T08:29:05;4.50;;;4.10;;
2564;SDS011;1292;48.020;7.822;2022-07-29T08:31:32;4.67;;;3.17;;
2564;SDS011;1292;48.020;7.822;2022-07-29T08:34:00;3.67;;;3.20;;
2564;SDS011;1292;48.020;7.822;2022-07-29T08:36:27;3.73;;;3.43;;
2564;SDS011;1292;48.020;7.822;2022-07-29T08:38:54;3.60;;;3.30;;
2564;SDS011;1292;48.020;7.822;2022-07-29T08:41:21;3.60;;;3.37;;
2564;SDS011;1292;48.020;7.822;2022-07-29T08:43:49;4.80;;;3.27;;
2564;SDS011;1292;48.020;7.822;2022-07-29T08:46:16;3.93;;;3.50;;
2564;SDS011;1292;48.020;7.822;2022-07-29T08:48:43;8.30;;;3.43;;
2564;SDS011;1292;48.020;7.822;2022-07-29T08:51:14;6.03;;;3.60;;
2564;SDS011;1292;48.020;7.822;2022-07-29T08:53:41;7.80;;;3.37;;
2564;SDS011;1292;48.020;7.822;2022-07-29T08:56:11;5.07;;;3.60;;
2564;SDS011;1292;48.020;7.822;2022-07-29T08:58:38;3.40;;;2.90;;
2564;SDS011;1292;48.020;7.822;2022-07-29T09:01:06;11.60;;;3.60;;
2564;SDS011;1292;48.020;7.822;2022-07-29T09:03:34;4.67;;;2.90;;
2564;SDS011;1292;48.020;7.822;2022-07-29T09:06:02;5.27;;;3.03;;
2564;SDS011;1292;48.020;7.822;2022-07-29T09:08:32;5.70;;;3.43;;
2564;SDS011;1292;48.020;7.822;2022-07-29T09:11:00;3.50;;;3.20;;
2564;SDS011;1292;48.020;7.822;2022-07-29T09:13:28;2.80;;;2.60;;
2564;SDS011;1292;48.020;7.822;2022-07-29T09:15:55;3.23;;;2.73;;
2564;SDS011;1292;48.020;7.822;2022-07-29T09:18:35;4.77;;;3.07;;
2564;SDS011;1292;48.020;7.822;2022-07-29T09:21:03;3.73;;;2.70;;
2564;SDS011;1292;48.020;7.822;2022-07-29T09:24:04;2.40;;;2.20;;
2564;SDS011;1292;48.020;7.822;2022-07-29T09:26:33;6.70;;;2.57;;
2564;SDS011;1292;48.020;7.822;2022-07-29T09:29:07;6.47;;;3.37;;
2564;SDS011;1292;48.020;7.822;2022-07-29T09:31:35;3.67;;;3.27;;
2564;SDS011;1292;48.020;7.822;2022-07-29T09:34:03;6.43;;;3.27;;
2564;SDS011;1292;48.020;7.822;2022-07-29T09:36:33;5.87;;;3.10;;
2564;SDS011;1292;48.020;7.822;2022-07-29T09:39:06;3.70;;;2.80;;
2564;SDS011;1292;48.020;7.822;2022-07-29T09:41:46;5.67;;;3.87;;
2564;SDS011;1292;48.020;7.822;2022-07-29T09:44:15;3.97;;;3.40;;
2564;SDS011;1292;48.020;7.822;2022-07-29T09:46:52;3.90;;;3.10;;
2564;SDS011;1292;48.020;7.822;2022-07-29T09:49:24;3.47;;;3.17;;
2564;SDS011;1292;48.020;7.822;2022-07-29T09:52:01;2.67;;;2.47;;
2564;SDS011;1292;48.020;7.822;2022-07-29T09:54:32;4.70;;;3.07;;
2564;SDS011;1292;48.020;7.822;2022-07-29T09:57:03;5.00;;;3.13;;
2564;SDS011;1292;48.020;7.822;2022-07-29T09:59:31;8.60;;;3.00;;
2564;SDS011;1292;48.020;7.822;2022-07-29T10:01:58;9.70;;;3.20;;
2564;SDS011;1292;48.020;7.822;2022-07-29T10:04:36;4.10;;;2.80;;
2564;SDS011;1292;48.020;7.822;2022-07-29T10:07:04;4.73;;;3.10;;
2564;SDS011;1292;48.020;7.822;2022-07-29T10:09:33;2.93;;;2.73;;
2564;SDS011;1292;48.020;7.822;2022-07-29T10:12:03;3.00;;;2.80;;
2564;SDS011;1292;48.020;7.822;2022-07-29T10:14:32;3.37;;;3.07;;
2564;SDS011;1292;48.020;7.822;2022-07-29T10:16:59;3.23;;;2.97;;
2564;SDS011;1292;48.020;7.822;2022-07-29T10:19:27;2.97;;;2.70;;
2564;SDS011;1292;48.020;7.822;2022-07-29T10:21:56;8.43;;;3.20;;
2564;SDS011;1292;48.020;7.822;2022-07-29T10:24:24;7.43;;;3.10;;
2564;SDS011;1292;48.020;7.822;2022-07-29T10:26:53;3.90;;;2.87;;
2564;SDS011;1292;48.020;7.822;2022-07-29T10:29:21;5.45;;;2.95;;
2564;SDS011;1292;48.020;7.822;2022-07-29T10:31:50;2.90;;;2.57;;
2564;SDS011;1292;48.020;7.822;2022-07-29T10:34:36;3.10;;;2.80;;
2564;SDS011;1292;48.020;7.822;2022-07-29T10:37:23;4.50;;;3.03;;
2564;SDS011;1292;48.020;7.822;2022-07-29T10:40:00;3.90;;;3.00;;
2564;SDS011;1292;48.020;7.822;2022-07-29T10:42:51;3.40;;;3.00;;
2564;SDS011;1292;48.020;7.822;2022-07-29T10:45:20;3.83;;;2.90;;
2564;SDS011;1292;48.020;7.822;2022-07-29T10:47:48;8.60;;;3.37;;
2564;SDS011;1292;48.020;7.822;2022-07-29T10:50:45;6.47;;;3.03;;
2564;SDS011;1292;48.020;7.822;2022-07-29T10:53:18;7.77;;;3.50;;
2564;SDS011;1292;48.020;7.822;2022-07-29T10:55:45;4.00;;;3.50;;
2564;SDS011;1292;48.020;7.822;2022-07-29T10:58:16;3.23;;;2.93;;
2564;SDS011;1292;48.020;7.822;2022-07-29T11:00:44;6.47;;;2.90;;
2564;SDS011;1292;48.020;7.822;2022-07-29T11:06:08;3.50;;;3.20;;
2564;SDS011;1292;48.020;7.822;2022-07-29T11:08:35;3.33;;;3.10;;
2564;SDS011;1292;48.020;7.822;2022-07-29T11:14:06;3.10;;;2.80;;
2564;SDS011;1292;48.020;7.822;2022-07-29T11:19:28;5.83;;;3.20;;
2564;SDS011;1292;48.020;7.822;2022-07-29T11:21:54;3.67;;;3.23;;
2564;SDS011;1292;48.020;7.822;2022-07-29T11:24:22;3.83;;;3.53;;
2564;SDS011;1292;48.020;7.822;2022-07-29T11:27:11;6.20;;;2.87;;
2564;SDS011;1292;48.020;7.822;2022-07-29T11:29:48;4.77;;;3.50;;
2564;SDS011;1292;48.020;7.822;2022-07-29T11:32:17;3.40;;;3.10;;
2564;SDS011;1292;48.020;7.822;2022-07-29T11:34:45;3.03;;;2.83;;
2564;SDS011;1292;48.020;7.822;2022-07-29T11:37:20;4.37;;;3.00;;
2564;SDS011;1292;48.020;7.822;2022-07-29T11:42:41;3.00;;;2.70;;
2564;SDS011;1292;48.020;7.822;2022-07-29T11:45:12;3.90;;;3.00;;
2564;SDS011;1292;48.020;7.822;2022-07-29T11:47:46;4.80;;;3.17;;
2564;SDS011;1292;48.020;7.822;2022-07-29T11:50:15;3.70;;;3.20;;
2564;SDS011;1292;48.020;7.822;2022-07-29T11:52:47;4.23;;;3.00;;
2564;SDS011;1292;48.020;7.822;2022-07-29T11:55:15;6.30;;;2.97;;
2564;SDS011;1292;48.020;7.822;2022-07-29T11:57:46;3.80;;;3.37;;
2564;SDS011;1292;48.020;7.822;2022-07-29T12:00:26;4.47;;;2.63;;
2564;SDS011;1292;48.020;7.822;2022-07-29T12:02:59;3.57;;;3.07;;
2564;SDS011;1292;48.020;7.822;2022-07-29T12:05:30;4.70;;;3.27;;
2564;SDS011;1292;48.020;7.822;2022-07-29T12:08:05;4.60;;;2.97;;
2564;SDS011;1292;48.020;7.822;2022-07-29T12:10:33;5.73;;;4.10;;
2564;SDS011;1292;48.020;7.822;2022-07-29T12:13:01;11.40;;;2.90;;
2564;SDS011;1292;48.020;7.822;2022-07-29T12:15:29;3.53;;;2.80;;
2564;SDS011;1292;48.020;7.822;2022-07-29T12:17:56;6.13;;;3.07;;
2564;SDS011;1292;48.020;7.822;2022-07-29T12:20:23;4.27;;;3.30;;
2564;SDS011;1292;48.020;7.822;2022-07-29T12:22:51;5.43;;;3.10;;
2564;SDS011;1292;48.020;7.822;2022-07-29T12:25:20;3.70;;;3.40;;
2564;SDS011;1292;48.020;7.822;2022-07-29T12:27:57;4.27;;;3.77;;
2564;SDS011;1292;48.020;7.822;2022-07-29T12:30:35;3.43;;;2.80;;
2564;SDS011;1292;48.020;7.822;2022-07-29T12:33:10;4.70;;;2.85;;
2564;SDS011;1292;48.020;7.822;2022-07-29T12:35:38;4.93;;;3.63;;
2564;SDS011;1292;48.020;7.822;2022-07-29T12:38:05;3.53;;;2.90;;
2564;SDS011;1292;48.020;7.822;2022-07-29T12:40:33;5.47;;;3.23;;
2564;SDS011;1292;48.020;7.822;2022-07-29T12:43:09;6.18;;;3.10;;
2564;SDS011;1292;48.020;7.822;2022-07-29T12:45:39;4.67;;;3.47;;
2564;SDS011;1292;48.020;7.822;2022-07-29T12:48:07;4.27;;;2.70;;
2564;SDS011;1292;48.020;7.822;2022-07-29T12:50:35;3.97;;;3.67;;
2564;SDS011;1292;48.020;7.822;2022-07-29T12:53:09;4.97;;;3.43;;
2564;SDS011;1292;48.020;7.822;2022-07-29T12:55:37;5.63;;;3.23;;
2564;SDS011;1292;48.020;7.822;2022-07-29T12:58:05;3.27;;;2.97;;
2564;SDS011;1292;48.020;7.822;2022-07-29T13:00:32;4.90;;;3.07;;
2564;SDS011;1292;48.020;7.822;2022-07-29T13:03:00;4.60;;;3.03;;
2564;SDS011;1292;48.020;7.822;2022-07-29T13:05:38;5.40;;;3.63;;
2564;SDS011;1292;48.020;7.822;2022-07-29T13:08:10;4.17;;;3.07;;
2564;SDS011;1292;48.020;7.822;2022-07-29T13:10:37;8.53;;;3.20;;
2564;SDS011;1292;48.020;7.822;2022-07-29T13:13:05;3.58;;;2.80;;
2564;SDS011;1292;48.020;7.822;2022-07-29T13:15:35;2.63;;;2.43;;
2564;SDS011;1292;48.020;7.822;2022-07-29T13:18:04;2.90;;;2.60;;
2564;SDS011;1292;48.020;7.822;2022-07-29T13:20:51;4.23;;;3.03;;
2564;SDS011;1292;48.020;7.822;2022-07-29T13:23:18;5.10;;;2.67;;
2564;SDS011;1292;48.020;7.822;2022-07-29T13:25:45;3.13;;;2.67;;
2564;SDS011;1292;48.020;7.822;2022-07-29T13:28:12;2.60;;;2.40;;
2564;SDS011;1292;48.020;7.822;2022-07-29T13:30:39;8.50;;;3.00;;
2564;SDS011;1292;48.020;7.822;2022-07-29T13:33:08;3.40;;;2.90;;
2564;SDS011;1292;48.020;7.822;2022-07-29T13:35:34;9.50;;;2.90;;
2564;SDS011;1292;48.020;7.822;2022-07-29T13:38:01;3.47;;;2.70;;
2564;SDS011;1292;48.020;7.822;2022-07-29T13:40:28;3.10;;;2.60;;
2564;SDS011;1292;48.020;7.822;2022-07-29T13:42:55;3.60;;;2.53;;
2564;SDS011;1292;48.020;7.822;2022-07-29T13:45:22;3.73;;;3.07;;
2564;SDS011;1292;48.020;7.822;2022-07-29T13:47:49;4.70;;;2.17;;
2564;SDS011;1292;48.020;7.822;2022-07-29T13:50:17;2.83;;;2.63;;
2564;SDS011;1292;48.020;7.822;2022-07-29T13:52:44;6.20;;;2.70;;
2564;SDS011;1292;48.020;7.822;2022-07-29T13:55:13;2.67;;;2.17;;
2564;SDS011;1292;48.020;7.822;2022-07-29T13:57:39;6.77;;;2.60;;
2564;SDS011;1292;48.020;7.822;2022-07-29T14:00:07;3.53;;;2.40;;
2564;SDS011;1292;48.020;7.822;2022-07-29T14:02:35;4.40;;;2.43;;
2564;SDS011;1292;48.020;7.822;2022-07-29T14:05:03;5.20;;;2.33;;
2564;SDS011;1292;48.020;7.822;2022-07-29T14:07:32;6.33;;;2.47;;
2564;SDS011;1292;48.020;7.822;2022-07-29T14:09:59;3.10;;;2.20;;
2564;SDS011;1292;48.020;7.822;2022-07-29T14:12:26;2.50;;;1.93;;
2564;SDS011;1292;48.020;7.822;2022-07-29T14:14:52;9.70;;;2.53;;
2564;SDS011;1292;48.020;7.822;2022-07-29T14:17:19;2.53;;;2.30;;
2564;SDS011;1292;48.020;7.822;2022-07-29T14:19:46;5.63;;;2.50;;
2564;SDS011;1292;48.020;7.822;2022-07-29T14:22:13;6.40;;;2.30;;
2564;SDS011;1292;48.020;7.822;2022-07-29T14:24:41;3.47;;;1.90;;
2564;SDS011;1292;48.020;7.822;2022-07-29T14:27:08;2.50;;;2.30;;
2564;SDS011;1292;48.020;7.822;2022-07-29T14:29:35;2.80;;;2.40;;
2564;SDS011;1292;48.020;7.822;2022-07-29T14:32:02;2.63;;;1.80;;
2564;SDS011;1292;48.020;7.822;2022-07-29T14:34:29;3.40;;;2.97;;
2564;SDS011;1292;48.020;7.822;2022-07-29T14:36:56;3.37;;;2.37;;
2564;SDS011;1292;48.020;7.822;2022-07-29T14:39:23;2.23;;;1.90;;
2564;SDS011;1292;48.020;7.822;2022-07-29T14:41:51;2.03;;;1.90;;
2564;SDS011;1292;48.020;7.822;2022-07-29T14:44:18;2.73;;;2.40;;
2564;SDS011;1292;48.020;7.822;2022-07-29T14:46:44;2.23;;;2.03;;
2564;SDS011;1292;48.020;7.822;2022-07-29T14:49:11;2.70;;;2.20;;
2564;SDS011;1292;48.020;7.822;2022-07-29T14:51:38;2.73;;;2.10;;
2564;SDS011;1292;48.020;7.822;2022-07-29T14:54:05;9.83;;;2.67;;
2564;SDS011;1292;48.020;7.822;2022-07-29T14:56:31;3.40;;;2.23;;
2564;SDS011;1292;48.020;7.822;2022-07-29T14:59:00;3.45;;;1.90;;
2564;SDS011;1292;48.020;7.822;2022-07-29T15:01:26;5.20;;;2.13;;
2564;SDS011;1292;48.020;7.822;2022-07-29T15:03:54;2.70;;;2.00;;
2564;SDS011;1292;48.020;7.822;2022-07-29T15:06:20;2.63;;;2.17;;
2564;SDS011;1292;48.020;7.822;2022-07-29T15:08:47;2.03;;;1.93;;
2564;SDS011;1292;48.020;7.822;2022-07-29T15:11:14;3.77;;;2.00;;
2564;SDS011;1292;48.020;7.822;2022-07-29T15:13:41;2.13;;;1.93;;
2564;SDS011;1292;48.020;7.822;2022-07-29T15:16:09;2.33;;;1.80;;
2564;SDS011;1292;48.020;7.822;2022-07-29T15:18:36;1.90;;;1.70;;
2564;SDS011;1292;48.020;7.822;2022-07-29T15:21:03;4.03;;;2.00;;
2564;SDS011;1292;48.020;7.822;2022-07-29T15:23:31;2.00;;;1.47;;
2564;SDS011;1292;48.020;7.822;2022-07-29T15:26:00;1.90;;;1.47;;
2564;SDS011;1292;48.020;7.822;2022-07-29T15:28:27;3.10;;;2.00;;
2564;SDS011;1292;48.020;7.822;2022-07-29T15:30:54;2.50;;;1.90;;
2564;SDS011;1292;48.020;7.822;2022-07-29T15:33:22;2.33;;;1.60;;
2564;SDS011;1292;48.020;7.822;2022-07-29T15:35:49;5.83;;;1.70;;
2564;SDS011;1292;48.020;7.822;2022-07-29T15:38:16;3.27;;;1.73;;
2564;SDS011;1292;48.020;7.822;2022-07-29T15:40:42;2.30;;;2.10;;
2564;SDS011;1292;48.020;7.822;2022-07-29T15:43:11;2.50;;;1.63;;
2564;SDS011;1292;48.020;7.822;2022-07-29T15:45:38;2.80;;;1.97;;
2564;SDS011;1292;48.020;7.822;2022-07-29T15:48:06;2.90;;;1.60;;
2564;SDS011;1292;48.020;7.822;2022-07-29T15:50:35;6.70;;;1.83;;
2564;SDS011;1292;48.020;7.822;2022-07-29T15:53:02;3.10;;;1.90;;
2564;SDS011;1292;48.020;7.822;2022-07-29T15:55:29;3.97;;;2.17;;
2564;SDS011;1292;48.020;7.822;2022-07-29T15:57:56;3.10;;;1.73;;
2564;SDS011;1292;48.020;7.822;2022-07-29T16:00:23;3.23;;;1.90;;
2564;SDS011;1292;48.020;7.822;2022-07-29T16:02:49;4.77;;;1.80;;
2564;SDS011;1292;48.020;7.822;2022-07-29T16:05:16;3.77;;;2.03;;
2564;SDS011;1292;48.020;7.822;2022-07-29T16:07:44;3.43;;;1.57;;
2564;SDS011;1292;48.020;7.822;2022-07-29T16:10:11;1.67;;;1.33;;
2564;SDS011;1292;48.020;7.822;2022-07-29T16:12:38;4.00;;;2.13;;
2564;SDS011;1292;48.020;7.822;2022-07-29T16:15:05;2.67;;;1.47;;
2564;SDS011;1292;48.020;7.822;2022-07-29T16:17:33;3.73;;;1.60;;
2564;SDS011;1292;48.020;7.822;2022-07-29T16:20:00;2.70;;;1.60;;
2564;SDS011;1292;48.020;7.822;2022-07-29T16:22:27;2.40;;;1.70;;
2564;SDS011;1292;48.020;7.822;2022-07-29T16:24:55;7.77;;;1.37;;
2564;SDS011;1292;48.020;7.822;2022-07-29T16:27:22;3.10;;;1.47;;
2564;SDS011;1292;48.020;7.822;2022-07-29T16:29:52;2.03;;;1.67;;
2564;SDS011;1292;48.020;7.822;2022-07-29T16:32:19;5.10;;;1.50;;
2564;SDS011;1292;48.020;7.822;2022-07-29T16:34:46;3.17;;;1.67;;
2564;SDS011;1292;48.020;7.822;2022-07-29T16:37:13;1.47;;;1.37;;
2564;SDS011;1292;48.020;7.822;2022-07-29T16:39:40;2.33;;;1.80;;
2564;SDS011;1292;48.020;7.822;2022-07-29T16:42:08;3.50;;;1.70;;
2564;SDS011;1292;48.020;7.822;2022-07-29T16:44:35;4.10;;;1.80;;
2564;SDS011;1292;48.020;7.822;2022-07-29T16:47:02;2.23;;;1.57;;
2564;SDS011;1292;48.020;7.822;2022-07-29T16:49:29;2.80;;;1.87;;
2564;SDS011;1292;48.020;7.822;2022-07-29T16:51:56;1.90;;;1.60;;
2564;SDS011;1292;48.020;7.822;2022-07-29T16:54:23;1.90;;;1.70;;
2564;SDS011;1292;48.020;7.822;2022-07-29T16:56:50;2.57;;;1.40;;
2564;SDS011;1292;48.020;7.822;2022-07-29T16:59:18;2.77;;;1.70;;
2564;SDS011;1292;48.020;7.822;2022-07-29T17:01:45;2.43;;;1.60;;
2564;SDS011;1292;48.020;7.822;2022-07-29T17:04:12;7.83;;;1.80;;
2564;SDS011;1292;48.020;7.822;2022-07-29T17:06:39;2.83;;;1.90;;
2564;SDS011;1292;48.020;7.822;2022-07-29T17:09:07;6.67;;;1.73;;
2564;SDS011;1292;48.020;7.822;2022-07-29T17:11:34;1.70;;;1.60;;
2564;SDS011;1292;48.020;7.822;2022-07-29T17:14:01;1.50;;;1.40;;
2564;SDS011;1292;48.020;7.822;2022-07-29T17:16:29;1.77;;;1.53;;
2564;SDS011;1292;48.020;7.822;2022-07-29T17:18:56;1.70;;;1.60;;
2564;SDS011;1292;48.020;7.822;2022-07-29T17:21:23;4.33;;;1.83;;
2564;SDS011;1292;48.020;7.822;2022-07-29T17:23:50;1.97;;;1.70;;
2564;SDS011;1292;48.020;7.822;2022-07-29T17:26:18;3.10;;;2.00;;
2564;SDS011;1292;48.020;7.822;2022-07-29T17:28:45;2.10;;;1.90;;
2564;SDS011;1292;48.020;7.822;2022-07-29T17:31:13;3.17;;;1.63;;
2564;SDS011;1292;48.020;7.822;2022-07-29T17:33:41;2.03;;;1.60;;
2564;SDS011;1292;48.020;7.822;2022-07-29T17:36:08;3.47;;;1.77;;
2564;SDS011;1292;48.020;7.822;2022-07-29T17:38:51;1.80;;;1.70;;
2564;SDS011;1292;48.020;7.822;2022-07-29T17:41:19;6.77;;;1.90;;
2564;SDS011;1292;48.020;7.822;2022-07-29T17:43:46;2.73;;;1.60;;
2564;SDS011;1292;48.020;7.822;2022-07-29T17:46:14;1.67;;;1.37;;
2564;SDS011;1292;48.020;7.822;2022-07-29T17:48:42;1.93;;;1.50;;
2564;SDS011;1292;48.020;7.822;2022-07-29T17:51:10;2.27;;;1.73;;
2564;SDS011;1292;48.020;7.822;2022-07-29T17:53:37;3.43;;;1.40;;
2564;SDS011;1292;48.020;7.822;2022-07-29T17:56:05;3.33;;;1.90;;
2564;SDS011;1292;48.020;7.822;2022-07-29T17:58:32;2.00;;;1.60;;
2564;SDS011;1292;48.020;7.822;2022-07-29T18:00:59;1.67;;;1.57;;
2564;SDS011;1292;48.020;7.822;2022-07-29T18:03:26;4.20;;;1.60;;
2564;SDS011;1292;48.020;7.822;2022-07-29T18:05:54;2.30;;;1.47;;
2564;SDS011;1292;48.020;7.822;2022-07-29T18:08:21;5.63;;;1.67;;
2564;SDS011;1292;48.020;7.822;2022-07-29T18:10:48;1.90;;;1.40;;
2564;SDS011;1292;48.020;7.822;2022-07-29T18:13:15;1.67;;;1.57;;
2564;SDS011;1292;48.020;7.822;2022-07-29T18:15:42;2.10;;;1.50;;
2564;SDS011;1292;48.020;7.822;2022-07-29T18:18:10;2.27;;;1.50;;
2564;SDS011;1292;48.020;7.822;2022-07-29T18:20:37;3.10;;;1.87;;
2564;SDS011;1292;48.020;7.822;2022-07-29T18:23:05;1.43;;;1.30;;
2564;SDS011;1292;48.020;7.822;2022-07-29T18:25:32;2.90;;;1.50;;
2564;SDS011;1292;48.020;7.822;2022-07-29T18:28:00;2.00;;;1.80;;
2564;SDS011;1292;48.020;7.822;2022-07-29T18:30:27;1.70;;;1.50;;
2564;SDS011;1292;48.020;7.822;2022-07-29T18:32:54;2.43;;;1.63;;
2564;SDS011;1292;48.020;7.822;2022-07-29T18:35:21;1.93;;;1.57;;
2564;SDS011;1292;48.020;7.822;2022-07-29T18:37:48;2.50;;;1.40;;
2564;SDS011;1292;48.020;7.822;2022-07-29T18:40:19;1.40;;;1.30;;
2564;SDS011;1292;48.020;7.822;2022-07-29T18:42:47;1.53;;;1.30;;
2564;SDS011;1292;48.020;7.822;2022-07-29T18:45:14;4.63;;;1.77;;
2564;SDS011;1292;48.020;7.822;2022-07-29T18:47:41;1.63;;;1.53;;
2564;SDS011;1292;48.020;7.822;2022-07-29T18:50:08;1.50;;;1.30;;
2564;SDS011;1292;48.020;7.822;2022-07-29T18:52:35;2.53;;;1.30;;
2564;SDS011;1292;48.020;7.822;2022-07-29T18:55:02;1.70;;;1.50;;
2564;SDS011;1292;48.020;7.822;2022-07-29T18:57:31;4.90;;;1.47;;
2564;SDS011;1292;48.020;7.822;2022-07-29T18:59:58;2.10;;;1.70;;
2564;SDS011;1292;48.020;7.822;2022-07-29T19:02:25;1.63;;;1.53;;
2564;SDS011;1292;48.020;7.822;2022-07-29T19:04:51;1.60;;;1.50;;
2564;SDS011;1292;48.020;7.822;2022-07-29T19:07:20;1.70;;;1.53;;
2564;SDS011;1292;48.020;7.822;2022-07-29T19:09:49;3.50;;;1.90;;
2564;SDS011;1292;48.020;7.822;2022-07-29T19:12:16;1.80;;;1.70;;
2564;SDS011;1292;48.020;7.822;2022-07-29T19:14:45;3.13;;;2.13;;
2564;SDS011;1292;48.020;7.822;2022-07-29T19:17:11;2.80;;;1.43;;
2564;SDS011;1292;48.020;7.822;2022-07-29T19:19:38;2.07;;;1.20;;
2564;SDS011;1292;48.020;7.822;2022-07-29T19:22:05;2.43;;;1.93;;
2564;SDS011;1292;48.020;7.822;2022-07-29T19:24:32;2.67;;;2.10;;
2564;SDS011;1292;48.020;7.822;2022-07-29T19:26:59;2.60;;;2.03;;
2564;SDS011;1292;48.020;7.822;2022-07-29T19:29:26;3.33;;;1.70;;
2564;SDS011;1292;48.020;7.822;2022-07-29T19:31:54;2.10;;;2.00;;
2564;SDS011;1292;48.020;7.822;2022-07-29T19:34:21;3.93;;;1.97;;
2564;SDS011;1292;48.020;7.822;2022-07-29T19:36:47;3.43;;;2.60;;
2564;SDS011;1292;48.020;7.822;2022-07-29T19:39:14;4.07;;;2.73;;
2564;SDS011;1292;48.020;7.822;2022-07-29T19:41:41;2.77;;;2.33;;
2564;SDS011;1292;48.020;7.822;2022-07-29T19:44:08;4.07;;;2.50;;
2564;SDS011;1292;48.020;7.822;2022-07-29T19:46:36;2.67;;;2.47;;
2564;SDS011;1292;48.020;7.822;2022-07-29T19:49:04;6.60;;;3.17;;
2564;SDS011;1292;48.020;7.822;2022-07-29T19:51:31;3.63;;;2.33;;
2564;SDS011;1292;48.020;7.822;2022-07-29T19:53:58;2.70;;;2.50;;
2564;SDS011;1292;48.020;7.822;2022-07-29T19:56:25;5.80;;;2.80;;
2564;SDS011;1292;48.020;7.822;2022-07-29T19:58:54;5.60;;;2.70;;
2564;SDS011;1292;48.020;7.822;2022-07-29T20:01:21;3.23;;;2.17;;
2564;SDS011;1292;48.020;7.822;2022-07-29T20:03:48;2.53;;;2.13;;
2564;SDS011;1292;48.020;7.822;2022-07-29T20:06:17;1.97;;;1.77;;
2564;SDS011;1292;48.020;7.822;2022-07-29T20:08:43;3.30;;;2.30;;
2564;SDS011;1292;48.020;7.822;2022-07-29T20:11:10;2.80;;;2.00;;
2564;SDS011;1292;48.020;7.822;2022-07-29T20:13:37;4.90;;;2.60;;
2564;SDS011;1292;48.020;7.822;2022-07-29T20:16:04;4.93;;;2.40;;
2564;SDS011;1292;48.020;7.822;2022-07-29T20:18:32;2.27;;;2.03;;
2564;SDS011;1292;48.020;7.822;2022-07-29T20:20:59;3.10;;;1.90;;
2564;SDS011;1292;48.020;7.822;2022-07-29T20:23:29;1.93;;;1.70;;
2564;SDS011;1292;48.020;7.822;2022-07-29T20:25:55;3.77;;;1.80;;
2564;SDS011;1292;48.020;7.822;2022-07-29T20:28:22;4.33;;;1.97;;
2564;SDS011;1292;48.020;7.822;2022-07-29T20:30:49;2.10;;;1.77;;
2564;SDS011;1292;48.020;7.822;2022-07-29T20:33:16;8.70;;;1.97;;
2564;SDS011;1292;48.020;7.822;2022-07-29T20:35:43;2.70;;;1.97;;
2564;SDS011;1292;48.020;7.822;2022-07-29T20:38:11;1.73;;;1.63;;
2564;SDS011;1292;48.020;7.822;2022-07-29T20:40:39;2.23;;;1.70;;
2564;SDS011;1292;48.020;7.822;2022-07-29T20:43:06;2.60;;;2.00;;
2564;SDS011;1292;48.020;7.822;2022-07-29T20:45:33;2.27;;;1.90;;
2564;SDS011;1292;48.020;7.822;2022-07-29T20:48:01;2.27;;;1.50;;
2564;SDS011;1292;48.020;7.822;2022-07-29T20:50:28;2.23;;;2.03;;
2564;SDS011;1292;48.020;7.822;2022-07-29T20:52:55;3.00;;;2.07;;
2564;SDS011;1292;48.020;7.822;2022-07-29T20:55:22;3.93;;;2.20;;
2564;SDS011;1292;48.020;7.822;2022-07-29T20:57:50;2.60;;;2.03;;
